createdAt,value
2022-12-08T00:00:02.334Z,9.55
2022-12-08T00:02:30.170Z,9.56
2022-12-08T00:05:15.483Z,9.55
2022-12-08T00:08:02.048Z,9.54
2022-12-08T00:13:17.577Z,9.55
2022-12-08T00:15:45.329Z,9.54
2022-12-08T00:18:13.006Z,9.55
2022-12-08T00:20:40.717Z,9.53
2022-12-08T00:23:10.121Z,9.52
2022-12-08T00:28:05.914Z,9.43
2022-12-08T00:30:33.549Z,9.49
2022-12-08T00:33:01.297Z,9.54
2022-12-08T00:35:28.936Z,9.52
2022-12-08T00:38:00.865Z,9.43
2022-12-08T00:40:30.447Z,9.50
2022-12-08T00:42:58.099Z,9.30
2022-12-08T00:45:25.907Z,9.46
2022-12-08T00:47:53.685Z,9.47
2022-12-08T00:50:21.547Z,9.42
2022-12-08T00:52:49.214Z,9.43
2022-12-08T00:55:17.085Z,9.43
2022-12-08T00:57:46.114Z,9.22
2022-12-08T01:00:14.554Z,9.41
2022-12-08T01:02:42.323Z,9.43
2022-12-08T01:05:10.414Z,9.40
2022-12-08T01:07:38.110Z,9.43
2022-12-08T01:10:07.337Z,9.44
2022-12-08T01:12:35.118Z,9.24
2022-12-08T01:15:04.458Z,9.46
2022-12-08T01:17:32.097Z,9.48
2022-12-08T01:20:00.155Z,9.48
2022-12-08T01:22:27.795Z,9.44
2022-12-08T01:24:55.571Z,9.48
2022-12-08T01:27:23.348Z,9.49
2022-12-08T01:29:51.595Z,9.48
2022-12-08T01:32:20.695Z,9.44
2022-12-08T01:34:48.419Z,9.44
2022-12-08T01:37:16.069Z,9.41
2022-12-08T01:39:44.011Z,9.43
2022-12-08T01:42:20.362Z,9.42
2022-12-08T01:44:54.428Z,9.41
2022-12-08T01:47:24.147Z,9.45
2022-12-08T01:49:52.059Z,9.47
2022-12-08T01:52:22.536Z,9.42
2022-12-08T01:54:51.515Z,9.48
2022-12-08T01:57:21.735Z,9.47
2022-12-08T01:59:51.508Z,9.46
2022-12-08T02:02:19.333Z,9.45
2022-12-08T02:04:48.573Z,9.46
2022-12-08T02:07:16.301Z,9.45
2022-12-08T02:09:53.311Z,9.24
2022-12-08T02:12:20.990Z,9.29
2022-12-08T02:14:48.812Z,9.19
2022-12-08T02:17:23.505Z,9.30
2022-12-08T02:20:07.482Z,9.39
2022-12-08T02:22:38.591Z,9.05
2022-12-08T02:25:09.874Z,9.09
2022-12-08T02:27:42.172Z,9.05
2022-12-08T02:30:17.039Z,9.35
2022-12-08T02:33:08.777Z,9.34
2022-12-08T02:35:38.128Z,9.30
2022-12-08T02:38:08.925Z,9.30
2022-12-08T02:40:37.864Z,9.30
2022-12-08T02:43:08.961Z,9.11
2022-12-08T02:45:38.481Z,9.01
2022-12-08T02:48:08.276Z,9.31
2022-12-08T02:50:36.003Z,9.29
2022-12-08T02:55:38.260Z,9.26
2022-12-08T02:58:19.289Z,9.20
2022-12-08T03:00:52.828Z,9.18
2022-12-08T03:03:23.610Z,8.96
2022-12-08T03:05:58.404Z,9.18
2022-12-08T03:08:29.975Z,9.29
2022-12-08T03:10:59.727Z,9.14
2022-12-08T03:13:29.990Z,9.34
2022-12-08T03:15:58.934Z,9.35
2022-12-08T03:18:29.638Z,9.22
2022-12-08T03:20:57.427Z,9.14
2022-12-08T03:23:25.086Z,9.10
2022-12-08T03:25:56.785Z,9.29
2022-12-08T03:28:24.671Z,9.30
2022-12-08T03:30:53.393Z,9.27
2022-12-08T03:33:23.601Z,9.26
2022-12-08T03:35:51.400Z,9.23
2022-12-08T03:38:19.099Z,9.19
2022-12-08T03:41:07.961Z,9.17
2022-12-08T03:43:37.026Z,9.18
2022-12-08T03:46:04.829Z,9.18
2022-12-08T03:48:32.527Z,9.15
2022-12-08T03:51:00.284Z,9.17
2022-12-08T03:53:28.007Z,9.14
2022-12-08T03:55:55.853Z,9.18
2022-12-08T03:58:23.611Z,9.20
2022-12-08T04:00:53.725Z,9.17
2022-12-08T04:03:21.493Z,8.99
2022-12-08T04:05:49.288Z,9.20
2022-12-08T04:08:17.004Z,9.17
2022-12-08T04:10:44.839Z,9.18
2022-12-08T04:13:12.548Z,9.11
2022-12-08T04:15:40.352Z,9.17
2022-12-08T04:18:09.438Z,9.12
2022-12-08T04:20:39.979Z,9.07
2022-12-08T04:23:07.658Z,9.08
2022-12-08T04:25:35.594Z,9.11
2022-12-08T04:28:03.367Z,9.12
2022-12-08T04:30:31.097Z,9.12
2022-12-08T04:32:58.843Z,9.13
2022-12-08T04:35:27.884Z,9.06
2022-12-08T04:37:55.765Z,9.17
2022-12-08T04:40:23.598Z,9.15
2022-12-08T04:42:51.289Z,9.20
2022-12-08T04:45:19.143Z,9.21
2022-12-08T04:47:46.983Z,9.15
2022-12-08T04:50:14.661Z,9.20
2022-12-08T04:52:43.824Z,9.18
2022-12-08T04:55:11.508Z,9.21
2022-12-08T04:57:39.311Z,9.16
2022-12-08T05:00:08.331Z,9.00
2022-12-08T05:02:36.131Z,9.07
2022-12-08T05:05:03.891Z,9.13
2022-12-08T05:07:31.634Z,8.91
2022-12-08T05:10:00.827Z,9.19
2022-12-08T05:12:28.687Z,9.18
2022-12-08T05:14:56.366Z,9.17
2022-12-08T05:17:24.334Z,9.19
2022-12-08T05:19:52.012Z,9.17
2022-12-08T05:22:19.735Z,9.08
2022-12-08T05:24:48.036Z,9.13
2022-12-08T05:27:17.129Z,9.14
2022-12-08T05:29:44.984Z,9.17
2022-12-08T05:32:12.669Z,9.14
2022-12-08T05:34:40.367Z,9.14
2022-12-08T05:37:08.093Z,9.09
2022-12-08T05:39:35.822Z,9.10
2022-12-08T05:42:03.661Z,9.10
2022-12-08T05:44:32.861Z,9.06
2022-12-08T05:47:00.534Z,9.06
2022-12-08T05:49:29.542Z,9.05
2022-12-08T05:51:57.272Z,9.05
2022-12-08T05:54:33.260Z,8.90
2022-12-08T05:57:00.998Z,8.55
2022-12-08T05:59:28.914Z,9.01
2022-12-08T06:01:58.061Z,9.00
2022-12-08T06:04:25.929Z,9.02
2022-12-08T06:06:53.732Z,8.77
2022-12-08T06:09:21.817Z,9.06
2022-12-08T06:11:49.630Z,9.07
2022-12-08T06:14:17.464Z,9.09
2022-12-08T06:16:45.360Z,9.12
2022-12-08T06:19:14.686Z,8.92
2022-12-08T06:21:42.645Z,9.15
2022-12-08T06:24:10.643Z,9.17
2022-12-08T06:26:40.396Z,9.14
2022-12-08T06:29:17.018Z,7.80
2022-12-08T06:31:54.366Z,7.70
2022-12-08T06:34:51.643Z,8.92
2022-12-08T06:41:20.626Z,9.29
2022-12-08T06:44:37.287Z,9.26
2022-12-08T06:48:17.484Z,8.57
2022-12-08T06:54:09.532Z,8.56
2022-12-08T06:59:41.870Z,9.15
2022-12-08T07:02:41.574Z,9.23
2022-12-08T07:05:27.478Z,7.29
2022-12-08T07:11:22.184Z,7.16
2022-12-08T07:14:06.174Z,6.88
2022-12-08T07:17:59.822Z,9.18
2022-12-08T07:20:37.744Z,6.92
2022-12-08T07:23:11.798Z,7.46
2022-12-08T07:29:45.709Z,7.77
2022-12-08T07:32:27.485Z,7.42
2022-12-08T07:35:18.369Z,6.86
2022-12-08T07:45:04.412Z,6.77
2022-12-08T07:55:49.156Z,7.69
2022-12-08T07:59:06.542Z,7.77
2022-12-08T08:02:42.963Z,7.87
2022-12-08T08:05:38.869Z,8.30
2022-12-08T08:08:39.057Z,8.40
2022-12-08T08:11:20.959Z,8.16
2022-12-08T08:13:51.294Z,6.55
2022-12-08T08:20:32.660Z,7.76
2022-12-08T08:23:50.392Z,7.85
2022-12-08T08:29:51.091Z,8.94
2022-12-08T08:32:46.450Z,7.07
2022-12-08T08:35:18.986Z,8.28
2022-12-08T08:42:27.933Z,7.70
2022-12-08T08:44:55.896Z,8.15
2022-12-08T08:47:59.894Z,7.45
2022-12-08T08:50:40.005Z,7.04
2022-12-08T08:53:55.130Z,6.92
2022-12-08T08:56:47.592Z,8.30
2022-12-08T09:06:24.328Z,7.00
2022-12-08T09:08:52.703Z,8.26
2022-12-08T09:11:50.599Z,6.00
2022-12-08T09:25:06.803Z,6.33
2022-12-08T09:27:34.952Z,7.54
2022-12-08T09:30:58.392Z,7.98
2022-12-08T09:33:53.006Z,5.49
2022-12-08T09:36:25.092Z,7.43
2022-12-08T09:39:19.111Z,6.00
2022-12-08T09:42:01.761Z,8.95
2022-12-08T09:45:29.442Z,7.78
2022-12-08T09:51:43.244Z,7.56
2022-12-08T09:54:32.991Z,8.87
2022-12-08T09:57:31.945Z,6.14
2022-12-08T10:03:59.860Z,5.89
2022-12-08T10:07:01.426Z,7.16
2022-12-08T10:10:16.703Z,9.04
2022-12-08T10:12:39.229Z,7.15
2022-12-08T10:16:19.125Z,7.12
2022-12-08T10:18:52.282Z,7.12
2022-12-08T10:21:25.885Z,7.19
2022-12-08T10:24:00.728Z,6.20
2022-12-08T10:27:15.583Z,6.30
2022-12-08T10:29:46.619Z,8.41
2022-12-08T10:32:20.015Z,8.19
2022-12-08T10:35:26.264Z,8.56
2022-12-08T10:38:06.526Z,7.26
2022-12-08T10:41:45.276Z,9.21
2022-12-08T10:47:32.422Z,7.84
2022-12-08T10:50:21.055Z,7.34
2022-12-08T10:52:56.144Z,9.25
2022-12-08T10:55:24.846Z,6.75
2022-12-08T10:58:27.145Z,8.05
2022-12-08T11:01:11.320Z,9.27
2022-12-08T11:03:41.044Z,8.99
2022-12-08T11:06:15.226Z,8.29
2022-12-08T11:08:56.349Z,8.58
2022-12-08T11:11:38.493Z,8.65
2022-12-08T11:14:07.942Z,9.36
2022-12-08T11:16:38.307Z,8.78
2022-12-08T11:19:07.653Z,7.54
2022-12-08T11:21:37.983Z,6.73
2022-12-08T11:24:23.408Z,8.80
2022-12-08T11:26:53.581Z,7.43
2022-12-08T11:29:21.900Z,8.33
2022-12-08T11:31:53.205Z,6.79
2022-12-08T11:34:22.841Z,7.50
2022-12-08T11:36:52.949Z,9.26
2022-12-08T11:41:16.170Z,8.04
2022-12-08T11:43:18.118Z,6.89
2022-12-08T11:46:46.401Z,9.98
2022-12-08T11:49:15.941Z,8.65
2022-12-08T11:51:45.814Z,9.99
2022-12-08T11:54:20.334Z,7.23
2022-12-08T11:56:49.239Z,9.93
2022-12-08T11:59:26.345Z,7.57
2022-12-08T12:01:57.439Z,9.93
2022-12-08T12:04:29.429Z,9.03
2022-12-08T12:07:39.215Z,9.01
2022-12-08T12:10:22.526Z,9.15
2022-12-08T12:13:20.813Z,9.88
2022-12-08T12:16:14.038Z,8.00
2022-12-08T12:22:23.232Z,9.86
2022-12-08T12:24:53.986Z,9.88
2022-12-08T12:27:29.143Z,9.82
2022-12-08T12:30:01.994Z,7.59
2022-12-08T12:32:55.111Z,7.46
2022-12-08T12:35:44.668Z,9.40
2022-12-08T12:40:48.679Z,9.84
2022-12-08T12:43:28.943Z,9.84
2022-12-08T12:46:29.877Z,9.86
2022-12-08T12:48:58.204Z,9.80
2022-12-08T12:51:46.892Z,9.83
2022-12-08T12:54:22.190Z,9.79
2022-12-08T12:56:52.996Z,9.71
2022-12-08T12:59:36.526Z,9.80
2022-12-08T13:02:04.231Z,9.77
2022-12-08T13:04:33.761Z,9.73
2022-12-08T13:07:01.670Z,9.78
2022-12-08T13:09:32.789Z,9.74
2022-12-08T13:12:03.239Z,9.79
2022-12-08T13:14:33.082Z,9.67
2022-12-08T13:17:01.513Z,9.76
2022-12-08T13:19:48.814Z,9.61
2022-12-08T13:22:47.657Z,9.81
2022-12-08T13:25:57.040Z,9.79
2022-12-08T13:28:28.136Z,9.73
2022-12-08T13:30:57.649Z,9.68
2022-12-08T13:33:27.498Z,9.50
2022-12-08T13:36:01.695Z,9.68
2022-12-08T13:38:30.728Z,9.60
2022-12-08T13:40:58.544Z,9.24
2022-12-08T13:43:45.190Z,9.57
2022-12-08T13:57:33.759Z,9.77
2022-12-08T14:00:03.839Z,9.76
2022-12-08T14:02:35.805Z,9.73
2022-12-08T14:05:21.741Z,9.67
2022-12-08T14:07:53.664Z,9.65
2022-12-08T14:10:22.153Z,9.74
2022-12-08T14:12:53.550Z,9.36
2022-12-08T14:15:22.603Z,9.77
2022-12-08T14:21:34.430Z,9.73
2022-12-08T14:24:04.075Z,9.71
2022-12-08T14:26:33.860Z,9.69
2022-12-08T14:29:01.836Z,9.66
2022-12-08T14:31:30.954Z,9.55
2022-12-08T14:33:58.770Z,9.67
2022-12-08T14:36:26.823Z,9.64
2022-12-08T14:38:54.918Z,9.67
2022-12-08T14:41:26.486Z,9.67
2022-12-08T14:43:59.566Z,9.62
2022-12-08T14:46:27.468Z,9.61
2022-12-08T14:48:58.097Z,9.59
2022-12-08T14:51:29.634Z,9.38
2022-12-08T14:53:58.510Z,9.51
2022-12-08T14:56:28.079Z,9.49
2022-12-08T14:59:35.717Z,9.47
2022-12-08T15:02:14.976Z,9.45
2022-12-08T15:04:45.149Z,9.41
2022-12-08T15:07:14.230Z,9.45
2022-12-08T15:09:43.038Z,9.45
2022-12-08T15:12:26.368Z,9.46
2022-12-08T15:14:56.633Z,9.13
2022-12-08T15:17:32.862Z,9.27
2022-12-08T15:20:02.032Z,9.20
2022-12-08T15:22:30.541Z,9.53
2022-12-08T15:24:58.312Z,9.51
2022-12-08T15:27:26.390Z,9.09
2022-12-08T15:29:55.347Z,9.27
2022-12-08T15:32:24.021Z,9.27
2022-12-08T15:34:51.671Z,9.45
2022-12-08T15:37:22.753Z,9.45
2022-12-08T15:39:50.572Z,9.13
2022-12-08T15:42:18.462Z,9.47
2022-12-08T15:44:46.113Z,9.47
2022-12-08T15:47:16.620Z,9.40
2022-12-08T15:49:44.314Z,9.31
2022-12-08T15:52:14.067Z,9.21
2022-12-08T15:54:43.087Z,9.18
2022-12-08T15:57:30.053Z,9.08
2022-12-08T16:00:30.301Z,9.04
2022-12-08T16:03:34.319Z,9.03
2022-12-08T16:06:10.173Z,8.99
2022-12-08T16:08:49.497Z,9.01
2022-12-08T16:12:05.395Z,9.02
2022-12-08T16:17:19.601Z,8.95
2022-12-08T16:19:47.591Z,8.97
2022-12-08T16:22:51.624Z,8.94
2022-12-08T16:25:17.617Z,8.95
2022-12-08T16:30:35.650Z,8.96
2022-12-08T16:33:03.464Z,8.97
2022-12-08T16:35:31.501Z,8.99
2022-12-08T16:37:59.207Z,8.98
2022-12-08T16:40:26.932Z,9.01
2022-12-08T16:42:55.077Z,9.02
2022-12-08T16:45:23.759Z,9.03
2022-12-08T16:47:52.510Z,9.02
2022-12-08T16:50:21.112Z,9.04
2022-12-08T16:52:48.973Z,9.06
2022-12-08T16:55:17.486Z,8.99
2022-12-08T16:57:45.457Z,9.02
2022-12-08T17:00:17.090Z,8.97
2022-12-08T17:02:45.160Z,9.02
2022-12-08T17:05:13.783Z,8.96
2022-12-08T17:07:42.009Z,9.00
2022-12-08T17:10:11.088Z,9.02
2022-12-08T17:12:38.956Z,9.06
2022-12-08T17:15:08.552Z,9.04
2022-12-08T17:17:38.343Z,8.96
2022-12-08T17:20:07.932Z,9.03
2022-12-08T17:22:36.142Z,9.02
2022-12-08T17:25:04.010Z,9.04
2022-12-08T17:27:31.668Z,9.06
2022-12-08T17:29:59.545Z,9.09
2022-12-08T17:32:27.322Z,9.09
2022-12-08T17:35:03.792Z,9.05
2022-12-08T17:37:31.773Z,9.07
2022-12-08T17:39:59.562Z,9.07
2022-12-08T17:42:27.431Z,9.11
2022-12-08T17:44:55.352Z,9.07
2022-12-08T17:47:24.272Z,9.10
2022-12-08T17:49:52.244Z,9.10
2022-12-08T17:52:21.348Z,9.06
2022-12-08T17:54:49.039Z,9.05
2022-12-08T17:57:16.816Z,8.83
2022-12-08T17:59:44.764Z,8.96
2022-12-08T18:02:12.647Z,8.97
2022-12-08T18:04:41.505Z,9.00
2022-12-08T18:07:09.155Z,8.92
2022-12-08T18:09:38.390Z,8.93
2022-12-08T18:12:06.376Z,8.92
2022-12-08T18:14:34.271Z,8.89
2022-12-08T18:17:02.073Z,8.89
2022-12-08T18:19:29.981Z,8.92
2022-12-08T18:21:57.783Z,8.89
2022-12-08T18:24:25.619Z,8.91
2022-12-08T18:26:56.167Z,8.90
2022-12-08T18:29:24.082Z,8.91
2022-12-08T18:31:52.125Z,8.92
2022-12-08T18:34:19.974Z,8.91
2022-12-08T18:36:47.711Z,8.94
2022-12-08T18:39:21.601Z,8.90
2022-12-08T18:41:49.558Z,8.86
2022-12-08T18:44:19.024Z,8.89
2022-12-08T18:46:46.784Z,8.94
2022-12-08T18:49:16.973Z,8.91
2022-12-08T18:51:44.854Z,8.94
2022-12-08T18:54:13.073Z,8.91
2022-12-08T18:56:40.988Z,8.89
2022-12-08T18:59:10.494Z,8.59
2022-12-08T19:01:40.454Z,8.86
2022-12-08T19:06:57.014Z,8.83
2022-12-08T19:09:26.670Z,8.88
2022-12-08T19:11:54.944Z,8.86
2022-12-08T19:14:27.739Z,8.94
2022-12-08T19:16:58.044Z,8.84
2022-12-08T19:19:26.160Z,8.95
2022-12-08T19:21:54.068Z,8.95
2022-12-08T19:24:21.911Z,8.91
2022-12-08T19:26:49.831Z,8.91
2022-12-08T19:29:17.888Z,8.92
2022-12-08T19:31:45.723Z,8.91
2022-12-08T19:34:15.120Z,8.91
2022-12-08T19:36:43.348Z,8.92
2022-12-08T19:39:31.835Z,8.88
2022-12-08T19:42:17.181Z,8.89
2022-12-08T19:47:22.252Z,8.84
2022-12-08T19:49:51.553Z,8.81
2022-12-08T19:52:19.421Z,8.82
2022-12-08T19:54:47.443Z,8.78
2022-12-08T19:57:15.959Z,8.78
2022-12-08T19:59:43.758Z,8.78
2022-12-08T20:02:11.846Z,8.80
2022-12-08T20:04:39.841Z,8.82
2022-12-08T20:07:09.002Z,8.83
2022-12-08T20:09:38.988Z,8.79
2022-12-08T20:12:08.203Z,8.80
2022-12-08T20:14:37.585Z,8.72
2022-12-08T20:17:08.013Z,8.81
2022-12-08T20:19:35.890Z,8.80
2022-12-08T20:22:03.840Z,8.78
2022-12-08T20:24:33.101Z,8.71
2022-12-08T20:27:00.936Z,8.77
2022-12-08T20:29:28.800Z,8.70
2022-12-08T20:31:56.835Z,8.57
2022-12-08T20:34:24.871Z,8.51
2022-12-08T20:36:52.704Z,8.43
2022-12-08T20:39:20.486Z,8.51
2022-12-08T20:41:52.110Z,8.65
2022-12-08T20:44:19.939Z,8.58
2022-12-08T20:46:49.543Z,8.66
2022-12-08T20:49:18.762Z,8.63
2022-12-08T20:51:46.922Z,8.61
2022-12-08T20:54:14.958Z,8.65
2022-12-08T20:56:48.080Z,8.68
2022-12-08T20:59:18.280Z,8.55
2022-12-08T21:01:47.370Z,8.69
2022-12-08T21:04:15.536Z,8.72
2022-12-08T21:06:43.986Z,8.71
2022-12-08T21:09:12.054Z,8.68
2022-12-08T21:11:40.170Z,8.69
2022-12-08T21:14:08.063Z,8.69
2022-12-08T21:16:37.492Z,8.66
2022-12-08T21:19:05.917Z,8.64
2022-12-08T21:21:34.171Z,8.64
2022-12-08T21:24:02.199Z,8.64
2022-12-08T21:26:30.061Z,8.63
2022-12-08T21:28:58.929Z,8.61
2022-12-08T21:31:29.200Z,8.59
2022-12-08T21:33:58.564Z,8.59
2022-12-08T21:36:26.353Z,8.61
2022-12-08T21:38:54.662Z,8.60
2022-12-08T21:41:38.017Z,8.61
2022-12-08T21:44:06.016Z,8.60
2022-12-08T21:46:33.903Z,8.32
2022-12-08T21:49:03.252Z,8.53
2022-12-08T21:51:31.424Z,8.55
2022-12-08T21:53:59.361Z,8.56
2022-12-08T21:56:27.379Z,8.55
2022-12-08T21:58:55.259Z,8.53
2022-12-08T22:01:23.116Z,8.42
2022-12-08T22:03:51.114Z,8.37
2022-12-08T22:06:20.371Z,8.54
2022-12-08T22:08:53.797Z,8.58
2022-12-08T22:11:21.786Z,8.57
2022-12-08T22:13:50.819Z,8.56
2022-12-08T22:16:18.841Z,8.56
2022-12-08T22:18:46.749Z,8.51
2022-12-08T22:21:16.712Z,8.55
2022-12-08T22:23:46.321Z,8.54
2022-12-08T22:26:14.432Z,8.43
2022-12-08T22:28:44.434Z,8.34
2022-12-08T22:31:12.998Z,8.58
2022-12-08T22:33:41.397Z,8.59
2022-12-08T22:36:14.502Z,8.61
2022-12-08T22:38:42.467Z,8.61
2022-12-08T22:41:11.811Z,8.65
2022-12-08T22:43:40.085Z,8.66
2022-12-08T22:46:12.157Z,8.65
2022-12-08T22:48:40.751Z,8.60
2022-12-08T22:51:08.932Z,8.53
2022-12-08T22:53:37.027Z,8.53
2022-12-08T22:56:05.320Z,8.48
2022-12-08T22:58:34.437Z,8.47
2022-12-08T23:01:02.215Z,8.43
2022-12-08T23:03:30.089Z,8.40
2022-12-08T23:05:58.194Z,8.26
2022-12-08T23:08:26.070Z,8.29
2022-12-08T23:10:54.258Z,8.23
2022-12-08T23:13:22.434Z,8.18
2022-12-08T23:15:51.522Z,8.15
2022-12-08T23:18:20.003Z,8.09
2022-12-08T23:20:47.955Z,8.09
2022-12-08T23:23:16.059Z,8.08
2022-12-08T23:25:43.938Z,8.14
2022-12-08T23:28:11.899Z,8.09
2022-12-08T23:30:40.430Z,8.14
2022-12-08T23:33:09.491Z,8.20
2022-12-08T23:35:38.523Z,8.22
2022-12-08T23:38:06.220Z,8.22
2022-12-08T23:40:34.270Z,8.25
2022-12-08T23:43:02.037Z,8.23
2022-12-08T23:45:29.880Z,8.24
2022-12-08T23:47:58.104Z,8.24
2022-12-08T23:50:27.229Z,8.21
2022-12-08T23:52:54.864Z,8.20
2022-12-08T23:55:22.662Z,8.25
2022-12-08T23:57:50.296Z,8.18
